Terminal Aerodrome Forecast
Issued by NWS

Home | Current Version | Previous Version | Graphics & Text | Print | Product List | Glossary On
Versions: 1 2 3 4 5 6 7 8 9 10 11 12 13 14 15 16
000
FTUS43 KICT 281721
TAFCNU
TAF
KCNU 281721Z 2818/2918 17013G19KT P6SM VCSH FEW070 BKN100
     FM282000 18014KT P6SM SCT050 BKN100
     FM290400 17006KT P6SM VCTS BKN050CB
     FM290900 20007KT P6SM SCT040 SCT100
     FM291500 29009KT P6SM BKN025=

USA.gov is the U.S. government's official web portal to all federal, state and local government web resources and services.